sensor_id;sensor_type;location;lat;lon;timestamp;P1;durP1;ratioP1;P2;durP2;ratioP2
11123;SDS011;5616;42.692;23.312;2022-09-19T00:01:22;5.23;;;3.07;;
11123;SDS011;5616;42.692;23.312;2022-09-19T00:03:53;4.03;;;3.17;;
11123;SDS011;5616;42.692;23.312;2022-09-19T00:06:21;3.27;;;2.70;;
11123;SDS011;5616;42.692;23.312;2022-09-19T00:08:49;4.20;;;3.47;;
11123;SDS011;5616;42.692;23.312;2022-09-19T00:11:16;3.37;;;3.07;;
11123;SDS011;5616;42.692;23.312;2022-09-19T00:13:44;3.57;;;3.20;;
11123;SDS011;5616;42.692;23.312;2022-09-19T00:16:13;3.53;;;3.20;;
11123;SDS011;5616;42.692;23.312;2022-09-19T00:18:44;4.23;;;3.20;;
11123;SDS011;5616;42.692;23.312;2022-09-19T00:21:18;4.73;;;3.50;;
11123;SDS011;5616;42.692;23.312;2022-09-19T00:23:46;8.77;;;3.70;;
11123;SDS011;5616;42.692;23.312;2022-09-19T00:26:31;7.03;;;3.83;;
11123;SDS011;5616;42.692;23.312;2022-09-19T00:28:58;5.10;;;3.40;;
11123;SDS011;5616;42.692;23.312;2022-09-19T00:31:25;5.73;;;3.53;;
11123;SDS011;5616;42.692;23.312;2022-09-19T00:33:53;4.63;;;3.53;;
11123;SDS011;5616;42.692;23.312;2022-09-19T00:36:21;4.70;;;3.53;;
11123;SDS011;5616;42.692;23.312;2022-09-19T00:38:49;5.03;;;3.50;;
11123;SDS011;5616;42.692;23.312;2022-09-19T00:41:21;5.07;;;3.53;;
11123;SDS011;5616;42.692;23.312;2022-09-19T00:43:52;3.93;;;3.57;;
11123;SDS011;5616;42.692;23.312;2022-09-19T00:46:21;4.77;;;3.27;;
11123;SDS011;5616;42.692;23.312;2022-09-19T00:48:50;4.43;;;3.50;;
11123;SDS011;5616;42.692;23.312;2022-09-19T00:51:25;4.23;;;3.70;;
11123;SDS011;5616;42.692;23.312;2022-09-19T00:53:58;5.13;;;3.50;;
11123;SDS011;5616;42.692;23.312;2022-09-19T00:56:29;4.23;;;3.27;;
11123;SDS011;5616;42.692;23.312;2022-09-19T00:58:58;5.10;;;3.10;;
11123;SDS011;5616;42.692;23.312;2022-09-19T01:01:27;8.27;;;3.40;;
11123;SDS011;5616;42.692;23.312;2022-09-19T01:03:55;5.63;;;3.60;;
11123;SDS011;5616;42.692;23.312;2022-09-19T01:06:28;4.43;;;3.33;;
11123;SDS011;5616;42.692;23.312;2022-09-19T01:09:14;3.70;;;3.40;;
11123;SDS011;5616;42.692;23.312;2022-09-19T01:11:56;5.23;;;3.43;;
11123;SDS011;5616;42.692;23.312;2022-09-19T01:14:38;4.70;;;3.80;;
11123;SDS011;5616;42.692;23.312;2022-09-19T01:17:18;5.50;;;3.23;;
11123;SDS011;5616;42.692;23.312;2022-09-19T01:20:07;3.53;;;3.10;;
11123;SDS011;5616;42.692;23.312;2022-09-19T01:22:51;5.43;;;3.73;;
11123;SDS011;5616;42.692;23.312;2022-09-19T01:25:31;6.90;;;3.23;;
11123;SDS011;5616;42.692;23.312;2022-09-19T01:28:15;3.90;;;2.70;;
11123;SDS011;5616;42.692;23.312;2022-09-19T01:30:55;4.07;;;3.20;;
11123;SDS011;5616;42.692;23.312;2022-09-19T01:33:49;3.10;;;2.67;;
11123;SDS011;5616;42.692;23.312;2022-09-19T01:36:23;4.17;;;2.90;;
11123;SDS011;5616;42.692;23.312;2022-09-19T01:38:56;3.67;;;3.07;;
11123;SDS011;5616;42.692;23.312;2022-09-19T01:41:30;4.20;;;3.00;;
11123;SDS011;5616;42.692;23.312;2022-09-19T01:44:00;3.43;;;3.10;;
11123;SDS011;5616;42.692;23.312;2022-09-19T01:46:36;3.17;;;2.53;;
11123;SDS011;5616;42.692;23.312;2022-09-19T01:49:14;2.87;;;2.53;;
11123;SDS011;5616;42.692;23.312;2022-09-19T01:51:50;3.10;;;2.77;;
11123;SDS011;5616;42.692;23.312;2022-09-19T01:54:26;2.90;;;2.70;;
11123;SDS011;5616;42.692;23.312;2022-09-19T01:57:19;3.13;;;2.83;;
11123;SDS011;5616;42.692;23.312;2022-09-19T02:00:07;3.50;;;3.00;;
11123;SDS011;5616;42.692;23.312;2022-09-19T02:02:46;3.13;;;2.60;;
11123;SDS011;5616;42.692;23.312;2022-09-19T02:05:22;3.53;;;2.60;;
11123;SDS011;5616;42.692;23.312;2022-09-19T02:08:01;4.17;;;2.87;;
11123;SDS011;5616;42.692;23.312;2022-09-19T02:10:36;4.23;;;2.80;;
11123;SDS011;5616;42.692;23.312;2022-09-19T02:13:07;6.10;;;3.10;;
11123;SDS011;5616;42.692;23.312;2022-09-19T02:15:47;3.70;;;3.20;;
11123;SDS011;5616;42.692;23.312;2022-09-19T02:18:21;2.90;;;2.60;;
11123;SDS011;5616;42.692;23.312;2022-09-19T02:20:55;2.83;;;2.57;;
11123;SDS011;5616;42.692;23.312;2022-09-19T02:23:27;3.30;;;2.67;;
11123;SDS011;5616;42.692;23.312;2022-09-19T02:25:58;3.33;;;2.90;;
11123;SDS011;5616;42.692;23.312;2022-09-19T02:28:31;3.40;;;2.43;;
11123;SDS011;5616;42.692;23.312;2022-09-19T02:31:07;3.90;;;2.53;;
11123;SDS011;5616;42.692;23.312;2022-09-19T02:33:38;3.13;;;2.40;;
11123;SDS011;5616;42.692;23.312;2022-09-19T02:36:11;5.03;;;2.50;;
11123;SDS011;5616;42.692;23.312;2022-09-19T02:38:44;3.15;;;2.50;;
11123;SDS011;5616;42.692;23.312;2022-09-19T02:41:22;2.83;;;2.50;;
11123;SDS011;5616;42.692;23.312;2022-09-19T02:43:54;3.27;;;2.73;;
11123;SDS011;5616;42.692;23.312;2022-09-19T02:46:35;3.83;;;2.93;;
11123;SDS011;5616;42.692;23.312;2022-09-19T02:49:08;3.50;;;2.17;;
11123;SDS011;5616;42.692;23.312;2022-09-19T02:51:43;3.17;;;2.60;;
11123;SDS011;5616;42.692;23.312;2022-09-19T02:54:17;4.10;;;2.77;;
11123;SDS011;5616;42.692;23.312;2022-09-19T02:56:47;4.60;;;2.60;;
11123;SDS011;5616;42.692;23.312;2022-09-19T02:59:17;4.77;;;2.30;;
11123;SDS011;5616;42.692;23.312;2022-09-19T03:01:58;2.80;;;2.60;;
11123;SDS011;5616;42.692;23.312;2022-09-19T03:04:29;3.00;;;2.67;;
11123;SDS011;5616;42.692;23.312;2022-09-19T03:07:02;3.80;;;2.60;;
11123;SDS011;5616;42.692;23.312;2022-09-19T03:09:39;4.77;;;2.57;;
11123;SDS011;5616;42.692;23.312;2022-09-19T03:12:13;3.73;;;2.50;;
11123;SDS011;5616;42.692;23.312;2022-09-19T03:14:45;4.00;;;2.70;;
11123;SDS011;5616;42.692;23.312;2022-09-19T03:17:17;2.93;;;2.47;;
11123;SDS011;5616;42.692;23.312;2022-09-19T03:19:46;3.33;;;2.97;;
11123;SDS011;5616;42.692;23.312;2022-09-19T03:22:15;3.73;;;2.73;;
11123;SDS011;5616;42.692;23.312;2022-09-19T03:24:42;5.10;;;2.47;;
11123;SDS011;5616;42.692;23.312;2022-09-19T03:27:09;3.93;;;3.30;;
11123;SDS011;5616;42.692;23.312;2022-09-19T03:29:37;4.43;;;2.97;;
11123;SDS011;5616;42.692;23.312;2022-09-19T03:32:04;4.23;;;3.17;;
11123;SDS011;5616;42.692;23.312;2022-09-19T03:34:33;3.20;;;2.87;;
11123;SDS011;5616;42.692;23.312;2022-09-19T03:37:03;3.63;;;2.90;;
11123;SDS011;5616;42.692;23.312;2022-09-19T03:39:32;6.33;;;3.13;;
11123;SDS011;5616;42.692;23.312;2022-09-19T03:42:00;4.23;;;3.10;;
11123;SDS011;5616;42.692;23.312;2022-09-19T03:44:29;3.90;;;3.40;;
11123;SDS011;5616;42.692;23.312;2022-09-19T03:46:56;6.27;;;3.00;;
11123;SDS011;5616;42.692;23.312;2022-09-19T03:49:24;5.37;;;2.87;;
11123;SDS011;5616;42.692;23.312;2022-09-19T03:51:53;3.23;;;2.93;;
11123;SDS011;5616;42.692;23.312;2022-09-19T03:54:20;5.97;;;3.10;;
11123;SDS011;5616;42.692;23.312;2022-09-19T03:56:47;4.20;;;2.80;;
11123;SDS011;5616;42.692;23.312;2022-09-19T03:59:14;3.00;;;2.50;;
11123;SDS011;5616;42.692;23.312;2022-09-19T04:01:42;3.90;;;3.00;;
11123;SDS011;5616;42.692;23.312;2022-09-19T04:04:09;3.37;;;2.97;;
11123;SDS011;5616;42.692;23.312;2022-09-19T04:06:49;3.07;;;2.60;;
11123;SDS011;5616;42.692;23.312;2022-09-19T04:09:17;3.13;;;2.80;;
11123;SDS011;5616;42.692;23.312;2022-09-19T04:11:47;2.83;;;2.60;;
11123;SDS011;5616;42.692;23.312;2022-09-19T04:14:14;4.57;;;3.13;;
11123;SDS011;5616;42.692;23.312;2022-09-19T04:16:42;4.17;;;2.97;;
11123;SDS011;5616;42.692;23.312;2022-09-19T04:19:09;3.27;;;2.97;;
11123;SDS011;5616;42.692;23.312;2022-09-19T04:21:56;3.63;;;2.80;;
11123;SDS011;5616;42.692;23.312;2022-09-19T04:24:37;3.80;;;2.87;;
11123;SDS011;5616;42.692;23.312;2022-09-19T04:27:33;3.93;;;3.20;;
11123;SDS011;5616;42.692;23.312;2022-09-19T04:30:00;3.43;;;3.03;;
11123;SDS011;5616;42.692;23.312;2022-09-19T04:32:28;3.27;;;2.97;;
11123;SDS011;5616;42.692;23.312;2022-09-19T04:34:55;3.40;;;3.00;;
11123;SDS011;5616;42.692;23.312;2022-09-19T04:37:25;4.50;;;3.07;;
11123;SDS011;5616;42.692;23.312;2022-09-19T04:40:04;3.00;;;2.70;;
11123;SDS011;5616;42.692;23.312;2022-09-19T04:42:31;4.10;;;3.13;;
11123;SDS011;5616;42.692;23.312;2022-09-19T04:45:00;7.47;;;3.10;;
11123;SDS011;5616;42.692;23.312;2022-09-19T04:47:50;5.53;;;3.40;;
11123;SDS011;5616;42.692;23.312;2022-09-19T04:50:18;5.10;;;3.53;;
11123;SDS011;5616;42.692;23.312;2022-09-19T04:52:54;5.97;;;3.83;;
11123;SDS011;5616;42.692;23.312;2022-09-19T04:55:24;8.93;;;4.17;;
11123;SDS011;5616;42.692;23.312;2022-09-19T04:57:53;6.43;;;3.67;;
11123;SDS011;5616;42.692;23.312;2022-09-19T05:00:20;5.63;;;3.83;;
11123;SDS011;5616;42.692;23.312;2022-09-19T05:03:03;5.07;;;3.17;;
11123;SDS011;5616;42.692;23.312;2022-09-19T05:05:31;4.93;;;3.57;;
11123;SDS011;5616;42.692;23.312;2022-09-19T05:07:59;4.13;;;2.87;;
11123;SDS011;5616;42.692;23.312;2022-09-19T05:10:27;4.97;;;4.07;;
11123;SDS011;5616;42.692;23.312;2022-09-19T05:12:54;7.47;;;3.97;;
11123;SDS011;5616;42.692;23.312;2022-09-19T05:15:21;4.63;;;4.00;;
11123;SDS011;5616;42.692;23.312;2022-09-19T05:17:51;6.57;;;4.27;;
11123;SDS011;5616;42.692;23.312;2022-09-19T05:20:19;6.90;;;3.70;;
11123;SDS011;5616;42.692;23.312;2022-09-19T05:22:46;10.00;;;5.03;;
11123;SDS011;5616;42.692;23.312;2022-09-19T05:25:14;8.47;;;4.77;;
11123;SDS011;5616;42.692;23.312;2022-09-19T05:27:43;10.60;;;5.53;;
11123;SDS011;5616;42.692;23.312;2022-09-19T05:30:10;6.53;;;4.70;;
11123;SDS011;5616;42.692;23.312;2022-09-19T05:32:40;9.50;;;6.03;;
11123;SDS011;5616;42.692;23.312;2022-09-19T05:35:33;7.10;;;4.40;;
11123;SDS011;5616;42.692;23.312;2022-09-19T05:38:23;5.70;;;3.67;;
11123;SDS011;5616;42.692;23.312;2022-09-19T05:40:58;6.43;;;3.43;;
11123;SDS011;5616;42.692;23.312;2022-09-19T05:43:41;8.90;;;3.40;;
11123;SDS011;5616;42.692;23.312;2022-09-19T05:46:08;3.90;;;3.50;;
11123;SDS011;5616;42.692;23.312;2022-09-19T05:48:37;4.33;;;3.00;;
11123;SDS011;5616;42.692;23.312;2022-09-19T05:51:05;6.03;;;3.50;;
11123;SDS011;5616;42.692;23.312;2022-09-19T05:53:32;7.63;;;3.97;;
11123;SDS011;5616;42.692;23.312;2022-09-19T05:56:36;10.07;;;4.00;;
11123;SDS011;5616;42.692;23.312;2022-09-19T05:59:07;6.07;;;4.13;;
11123;SDS011;5616;42.692;23.312;2022-09-19T06:01:37;7.77;;;4.67;;
11123;SDS011;5616;42.692;23.312;2022-09-19T06:04:09;5.07;;;3.50;;
11123;SDS011;5616;42.692;23.312;2022-09-19T06:06:38;4.80;;;3.90;;
11123;SDS011;5616;42.692;23.312;2022-09-19T06:09:06;7.47;;;3.73;;
11123;SDS011;5616;42.692;23.312;2022-09-19T06:11:37;4.70;;;3.90;;
11123;SDS011;5616;42.692;23.312;2022-09-19T06:14:04;6.87;;;3.80;;
11123;SDS011;5616;42.692;23.312;2022-09-19T06:16:43;4.90;;;4.10;;
11123;SDS011;5616;42.692;23.312;2022-09-19T06:19:22;6.40;;;4.23;;
11123;SDS011;5616;42.692;23.312;2022-09-19T06:22:11;6.17;;;4.40;;
11123;SDS011;5616;42.692;23.312;2022-09-19T06:24:40;7.57;;;4.63;;
11123;SDS011;5616;42.692;23.312;2022-09-19T06:27:09;5.53;;;4.17;;
11123;SDS011;5616;42.692;23.312;2022-09-19T06:29:39;9.07;;;6.77;;
11123;SDS011;5616;42.692;23.312;2022-09-19T06:32:24;6.40;;;4.87;;
11123;SDS011;5616;42.692;23.312;2022-09-19T06:35:09;14.50;;;7.63;;
11123;SDS011;5616;42.692;23.312;2022-09-19T06:37:37;12.50;;;6.27;;
11123;SDS011;5616;42.692;23.312;2022-09-19T06:40:07;10.50;;;5.53;;
11123;SDS011;5616;42.692;23.312;2022-09-19T06:42:56;6.40;;;4.67;;
11123;SDS011;5616;42.692;23.312;2022-09-19T06:45:51;7.87;;;5.03;;
11123;SDS011;5616;42.692;23.312;2022-09-19T06:48:38;9.20;;;7.27;;
11123;SDS011;5616;42.692;23.312;2022-09-19T06:51:28;10.13;;;5.43;;
11123;SDS011;5616;42.692;23.312;2022-09-19T06:53:55;10.17;;;5.73;;
11123;SDS011;5616;42.692;23.312;2022-09-19T06:56:23;8.50;;;5.47;;
11123;SDS011;5616;42.692;23.312;2022-09-19T06:58:50;7.00;;;5.27;;
11123;SDS011;5616;42.692;23.312;2022-09-19T07:01:17;16.17;;;10.03;;
11123;SDS011;5616;42.692;23.312;2022-09-19T07:03:45;8.93;;;5.60;;
11123;SDS011;5616;42.692;23.312;2022-09-19T07:06:18;4.00;;;3.30;;
11123;SDS011;5616;42.692;23.312;2022-09-19T07:09:00;7.77;;;3.90;;
11123;SDS011;5616;42.692;23.312;2022-09-19T07:11:27;5.17;;;3.43;;
11123;SDS011;5616;42.692;23.312;2022-09-19T07:13:54;5.13;;;3.57;;
11123;SDS011;5616;42.692;23.312;2022-09-19T07:16:22;8.33;;;4.27;;
11123;SDS011;5616;42.692;23.312;2022-09-19T07:18:51;5.40;;;4.50;;
11123;SDS011;5616;42.692;23.312;2022-09-19T07:21:40;4.87;;;3.53;;
11123;SDS011;5616;42.692;23.312;2022-09-19T07:24:11;7.00;;;4.47;;
11123;SDS011;5616;42.692;23.312;2022-09-19T07:27:05;10.07;;;5.33;;
11123;SDS011;5616;42.692;23.312;2022-09-19T07:29:32;5.23;;;3.43;;
11123;SDS011;5616;42.692;23.312;2022-09-19T07:31:59;4.97;;;2.93;;
11123;SDS011;5616;42.692;23.312;2022-09-19T07:34:28;4.03;;;3.10;;
11123;SDS011;5616;42.692;23.312;2022-09-19T07:36:57;5.57;;;3.00;;
11123;SDS011;5616;42.692;23.312;2022-09-19T07:39:26;8.00;;;3.73;;
11123;SDS011;5616;42.692;23.312;2022-09-19T07:42:13;3.57;;;2.63;;
11123;SDS011;5616;42.692;23.312;2022-09-19T07:45:06;5.50;;;3.80;;
11123;SDS011;5616;42.692;23.312;2022-09-19T07:48:08;5.27;;;2.90;;
11123;SDS011;5616;42.692;23.312;2022-09-19T07:50:57;5.13;;;2.93;;
11123;SDS011;5616;42.692;23.312;2022-09-19T07:53:34;4.30;;;3.30;;
11123;SDS011;5616;42.692;23.312;2022-09-19T07:56:01;5.23;;;3.50;;
11123;SDS011;5616;42.692;23.312;2022-09-19T07:58:29;9.90;;;4.43;;
11123;SDS011;5616;42.692;23.312;2022-09-19T08:01:00;7.70;;;4.37;;
11123;SDS011;5616;42.692;23.312;2022-09-19T08:03:46;7.33;;;4.47;;
11123;SDS011;5616;42.692;23.312;2022-09-19T08:06:18;7.80;;;4.90;;
11123;SDS011;5616;42.692;23.312;2022-09-19T08:08:46;7.47;;;3.97;;
11123;SDS011;5616;42.692;23.312;2022-09-19T08:11:51;5.93;;;3.70;;
11123;SDS011;5616;42.692;23.312;2022-09-19T08:14:18;7.13;;;4.23;;
11123;SDS011;5616;42.692;23.312;2022-09-19T08:16:45;5.30;;;3.90;;
11123;SDS011;5616;42.692;23.312;2022-09-19T08:19:14;7.60;;;4.70;;
11123;SDS011;5616;42.692;23.312;2022-09-19T08:21:43;6.17;;;3.47;;
11123;SDS011;5616;42.692;23.312;2022-09-19T08:24:10;7.43;;;3.67;;
11123;SDS011;5616;42.692;23.312;2022-09-19T08:26:37;14.13;;;6.53;;
11123;SDS011;5616;42.692;23.312;2022-09-19T08:29:06;14.80;;;6.60;;
11123;SDS011;5616;42.692;23.312;2022-09-19T08:31:44;7.37;;;4.20;;
11123;SDS011;5616;42.692;23.312;2022-09-19T08:34:10;4.70;;;4.17;;
11123;SDS011;5616;42.692;23.312;2022-09-19T08:36:38;5.17;;;3.43;;
11123;SDS011;5616;42.692;23.312;2022-09-19T08:39:06;4.87;;;3.40;;
11123;SDS011;5616;42.692;23.312;2022-09-19T08:41:38;7.20;;;3.50;;
11123;SDS011;5616;42.692;23.312;2022-09-19T08:44:17;3.90;;;3.07;;
11123;SDS011;5616;42.692;23.312;2022-09-19T08:46:53;4.10;;;3.10;;
11123;SDS011;5616;42.692;23.312;2022-09-19T08:49:29;4.20;;;2.83;;
11123;SDS011;5616;42.692;23.312;2022-09-19T08:52:05;5.67;;;3.63;;
11123;SDS011;5616;42.692;23.312;2022-09-19T08:54:39;11.60;;;3.33;;
11123;SDS011;5616;42.692;23.312;2022-09-19T08:57:20;6.93;;;3.30;;
11123;SDS011;5616;42.692;23.312;2022-09-19T08:59:56;7.30;;;3.10;;
11123;SDS011;5616;42.692;23.312;2022-09-19T09:02:31;6.97;;;2.93;;
11123;SDS011;5616;42.692;23.312;2022-09-19T09:05:11;11.93;;;3.50;;
11123;SDS011;5616;42.692;23.312;2022-09-19T09:07:42;7.10;;;3.20;;
11123;SDS011;5616;42.692;23.312;2022-09-19T09:10:46;4.60;;;2.67;;
11123;SDS011;5616;42.692;23.312;2022-09-19T09:13:29;4.47;;;2.70;;
11123;SDS011;5616;42.692;23.312;2022-09-19T09:16:11;9.27;;;3.00;;
11123;SDS011;5616;42.692;23.312;2022-09-19T09:18:52;5.53;;;3.20;;
11123;SDS011;5616;42.692;23.312;2022-09-19T09:21:33;7.03;;;3.17;;
11123;SDS011;5616;42.692;23.312;2022-09-19T09:24:09;6.10;;;3.43;;
11123;SDS011;5616;42.692;23.312;2022-09-19T09:27:00;5.73;;;3.33;;
11123;SDS011;5616;42.692;23.312;2022-09-19T09:29:31;6.87;;;3.20;;
11123;SDS011;5616;42.692;23.312;2022-09-19T09:32:11;9.97;;;3.60;;
11123;SDS011;5616;42.692;23.312;2022-09-19T09:34:52;5.50;;;3.63;;
11123;SDS011;5616;42.692;23.312;2022-09-19T09:37:25;8.57;;;4.03;;
11123;SDS011;5616;42.692;23.312;2022-09-19T09:40:02;7.07;;;3.73;;
11123;SDS011;5616;42.692;23.312;2022-09-19T09:42:44;7.30;;;3.43;;
11123;SDS011;5616;42.692;23.312;2022-09-19T09:45:22;11.00;;;3.80;;
11123;SDS011;5616;42.692;23.312;2022-09-19T09:48:07;6.63;;;3.77;;
11123;SDS011;5616;42.692;23.312;2022-09-19T09:50:43;14.27;;;7.50;;
11123;SDS011;5616;42.692;23.312;2022-09-19T09:53:21;6.93;;;4.30;;
11123;SDS011;5616;42.692;23.312;2022-09-19T09:56:00;6.83;;;3.63;;
11123;SDS011;5616;42.692;23.312;2022-09-19T09:58:45;7.17;;;3.40;;
11123;SDS011;5616;42.692;23.312;2022-09-19T10:01:31;8.23;;;3.60;;
11123;SDS011;5616;42.692;23.312;2022-09-19T10:04:29;7.30;;;3.40;;
11123;SDS011;5616;42.692;23.312;2022-09-19T10:07:11;8.87;;;3.80;;
11123;SDS011;5616;42.692;23.312;2022-09-19T10:09:47;9.37;;;3.40;;
11123;SDS011;5616;42.692;23.312;2022-09-19T10:12:19;6.83;;;3.23;;
11123;SDS011;5616;42.692;23.312;2022-09-19T10:14:52;8.10;;;3.00;;
11123;SDS011;5616;42.692;23.312;2022-09-19T10:17:46;12.67;;;6.10;;
11123;SDS011;5616;42.692;23.312;2022-09-19T10:20:20;6.80;;;3.17;;
11123;SDS011;5616;42.692;23.312;2022-09-19T10:22:53;11.77;;;6.30;;
11123;SDS011;5616;42.692;23.312;2022-09-19T10:25:23;13.70;;;7.60;;
11123;SDS011;5616;42.692;23.312;2022-09-19T10:27:52;14.43;;;5.73;;
11123;SDS011;5616;42.692;23.312;2022-09-19T10:30:34;6.17;;;4.00;;
11123;SDS011;5616;42.692;23.312;2022-09-19T10:33:16;6.83;;;3.27;;
11123;SDS011;5616;42.692;23.312;2022-09-19T10:36:02;5.47;;;2.83;;
11123;SDS011;5616;42.692;23.312;2022-09-19T10:38:37;4.80;;;3.03;;
11123;SDS011;5616;42.692;23.312;2022-09-19T10:41:13;12.63;;;3.20;;
11123;SDS011;5616;42.692;23.312;2022-09-19T10:43:49;7.20;;;3.87;;
11123;SDS011;5616;42.692;23.312;2022-09-19T10:46:21;6.23;;;2.70;;
11123;SDS011;5616;42.692;23.312;2022-09-19T10:49:15;11.33;;;4.30;;
11123;SDS011;5616;42.692;23.312;2022-09-19T10:51:46;4.97;;;3.37;;
11123;SDS011;5616;42.692;23.312;2022-09-19T10:54:21;4.37;;;2.80;;
11123;SDS011;5616;42.692;23.312;2022-09-19T10:56:56;8.73;;;3.70;;
11123;SDS011;5616;42.692;23.312;2022-09-19T10:59:27;5.00;;;3.33;;
11123;SDS011;5616;42.692;23.312;2022-09-19T11:02:16;4.20;;;2.60;;
11123;SDS011;5616;42.692;23.312;2022-09-19T11:04:55;6.43;;;2.83;;
11123;SDS011;5616;42.692;23.312;2022-09-19T11:07:29;4.13;;;2.40;;
11123;SDS011;5616;42.692;23.312;2022-09-19T11:10:01;5.00;;;2.30;;
11123;SDS011;5616;42.692;23.312;2022-09-19T11:12:35;4.33;;;2.33;;
11123;SDS011;5616;42.692;23.312;2022-09-19T11:15:07;3.53;;;2.10;;
11123;SDS011;5616;42.692;23.312;2022-09-19T11:17:52;3.07;;;2.07;;
11123;SDS011;5616;42.692;23.312;2022-09-19T11:20:44;3.47;;;2.20;;
11123;SDS011;5616;42.692;23.312;2022-09-19T11:26:38;3.47;;;1.90;;
11123;SDS011;5616;42.692;23.312;2022-09-19T11:29:26;3.13;;;1.93;;
11123;SDS011;5616;42.692;23.312;2022-09-19T11:32:14;5.60;;;1.83;;
11123;SDS011;5616;42.692;23.312;2022-09-19T11:34:52;4.27;;;2.00;;
11123;SDS011;5616;42.692;23.312;2022-09-19T11:37:29;3.30;;;1.90;;
11123;SDS011;5616;42.692;23.312;2022-09-19T11:40:15;4.10;;;2.50;;
11123;SDS011;5616;42.692;23.312;2022-09-19T11:42:54;6.00;;;2.13;;
11123;SDS011;5616;42.692;23.312;2022-09-19T11:45:34;3.83;;;2.13;;
11123;SDS011;5616;42.692;23.312;2022-09-19T11:48:22;2.70;;;1.80;;
11123;SDS011;5616;42.692;23.312;2022-09-19T11:51:05;5.67;;;2.93;;
11123;SDS011;5616;42.692;23.312;2022-09-19T11:53:44;6.33;;;2.53;;
11123;SDS011;5616;42.692;23.312;2022-09-19T11:59:21;4.97;;;1.77;;
11123;SDS011;5616;42.692;23.312;2022-09-19T12:02:05;5.67;;;2.00;;
11123;SDS011;5616;42.692;23.312;2022-09-19T12:04:48;4.47;;;1.70;;
11123;SDS011;5616;42.692;23.312;2022-09-19T12:07:32;4.07;;;2.00;;
11123;SDS011;5616;42.692;23.312;2022-09-19T12:10:10;8.80;;;2.87;;
11123;SDS011;5616;42.692;23.312;2022-09-19T12:12:52;7.70;;;4.03;;
11123;SDS011;5616;42.692;23.312;2022-09-19T12:15:37;4.90;;;3.20;;
11123;SDS011;5616;42.692;23.312;2022-09-19T12:18:10;8.00;;;2.23;;
11123;SDS011;5616;42.692;23.312;2022-09-19T12:20:43;7.90;;;3.80;;
11123;SDS011;5616;42.692;23.312;2022-09-19T12:23:19;6.03;;;1.80;;
11123;SDS011;5616;42.692;23.312;2022-09-19T12:26:16;5.20;;;2.10;;
11123;SDS011;5616;42.692;23.312;2022-09-19T12:28:49;5.10;;;1.90;;
11123;SDS011;5616;42.692;23.312;2022-09-19T12:31:23;3.90;;;1.70;;
11123;SDS011;5616;42.692;23.312;2022-09-19T12:33:55;4.60;;;1.67;;
11123;SDS011;5616;42.692;23.312;2022-09-19T12:36:36;4.67;;;2.70;;
11123;SDS011;5616;42.692;23.312;2022-09-19T12:39:13;3.57;;;2.03;;
11123;SDS011;5616;42.692;23.312;2022-09-19T12:41:45;5.10;;;1.97;;
11123;SDS011;5616;42.692;23.312;2022-09-19T12:44:23;6.27;;;1.70;;
11123;SDS011;5616;42.692;23.312;2022-09-19T12:46:55;3.87;;;1.70;;
11123;SDS011;5616;42.692;23.312;2022-09-19T12:49:59;3.47;;;1.50;;
11123;SDS011;5616;42.692;23.312;2022-09-19T12:52:34;3.70;;;1.90;;
11123;SDS011;5616;42.692;23.312;2022-09-19T12:55:12;5.10;;;2.23;;
11123;SDS011;5616;42.692;23.312;2022-09-19T12:57:44;6.57;;;2.93;;
11123;SDS011;5616;42.692;23.312;2022-09-19T13:00:16;9.53;;;1.93;;
11123;SDS011;5616;42.692;23.312;2022-09-19T13:02:47;3.90;;;1.83;;
11123;SDS011;5616;42.692;23.312;2022-09-19T13:05:18;3.87;;;2.63;;
11123;SDS011;5616;42.692;23.312;2022-09-19T13:07:53;4.20;;;1.50;;
11123;SDS011;5616;42.692;23.312;2022-09-19T13:10:28;2.27;;;1.60;;
11123;SDS011;5616;42.692;23.312;2022-09-19T13:13:04;2.10;;;1.33;;
11123;SDS011;5616;42.692;23.312;2022-09-19T13:15:39;1.60;;;1.27;;
11123;SDS011;5616;42.692;23.312;2022-09-19T13:18:14;3.60;;;1.57;;
11123;SDS011;5616;42.692;23.312;2022-09-19T13:21:00;2.70;;;1.37;;
11123;SDS011;5616;42.692;23.312;2022-09-19T13:23:49;3.80;;;1.00;;
11123;SDS011;5616;42.692;23.312;2022-09-19T13:26:23;1.17;;;0.70;;
11123;SDS011;5616;42.692;23.312;2022-09-19T13:29:01;1.70;;;1.20;;
11123;SDS011;5616;42.692;23.312;2022-09-19T13:31:31;2.37;;;1.50;;
11123;SDS011;5616;42.692;23.312;2022-09-19T13:40:05;1.90;;;0.83;;
11123;SDS011;5616;42.692;23.312;2022-09-19T13:42:45;3.23;;;1.10;;
11123;SDS011;5616;42.692;23.312;2022-09-19T13:45:16;0.80;;;0.67;;
11123;SDS011;5616;42.692;23.312;2022-09-19T13:47:51;3.10;;;1.00;;
11123;SDS011;5616;42.692;23.312;2022-09-19T13:50:23;2.87;;;1.20;;
11123;SDS011;5616;42.692;23.312;2022-09-19T13:52:54;1.10;;;0.77;;
11123;SDS011;5616;42.692;23.312;2022-09-19T13:55:28;1.27;;;0.87;;
11123;SDS011;5616;42.692;23.312;2022-09-19T13:58:25;2.00;;;1.10;;
11123;SDS011;5616;42.692;23.312;2022-09-19T14:01:07;1.03;;;0.93;;
11123;SDS011;5616;42.692;23.312;2022-09-19T14:03:47;2.37;;;1.20;;
11123;SDS011;5616;42.692;23.312;2022-09-19T14:06:23;3.00;;;1.20;;
11123;SDS011;5616;42.692;23.312;2022-09-19T14:09:14;2.87;;;1.07;;
11123;SDS011;5616;42.692;23.312;2022-09-19T14:11:45;2.33;;;0.90;;
11123;SDS011;5616;42.692;23.312;2022-09-19T14:17:27;1.20;;;0.87;;
11123;SDS011;5616;42.692;23.312;2022-09-19T14:19:59;1.07;;;0.93;;
11123;SDS011;5616;42.692;23.312;2022-09-19T14:22:37;0.80;;;0.80;;
11123;SDS011;5616;42.692;23.312;2022-09-19T14:25:13;2.83;;;0.70;;
11123;SDS011;5616;42.692;23.312;2022-09-19T14:27:56;0.97;;;0.87;;
11123;SDS011;5616;42.692;23.312;2022-09-19T14:36:51;1.97;;;0.93;;
11123;SDS011;5616;42.692;23.312;2022-09-19T14:39:47;2.03;;;1.10;;
11123;SDS011;5616;42.692;23.312;2022-09-19T14:42:33;2.37;;;1.03;;
11123;SDS011;5616;42.692;23.312;2022-09-19T14:48:22;2.17;;;1.40;;
11123;SDS011;5616;42.692;23.312;2022-09-19T14:51:01;1.47;;;1.30;;
11123;SDS011;5616;42.692;23.312;2022-09-19T14:53:41;1.13;;;0.90;;
11123;SDS011;5616;42.692;23.312;2022-09-19T14:56:10;4.67;;;1.13;;
11123;SDS011;5616;42.692;23.312;2022-09-19T14:58:39;3.77;;;1.07;;
11123;SDS011;5616;42.692;23.312;2022-09-19T15:01:06;1.40;;;1.20;;
11123;SDS011;5616;42.692;23.312;2022-09-19T15:03:48;1.47;;;0.97;;
11123;SDS011;5616;42.692;23.312;2022-09-19T15:06:22;4.00;;;1.17;;
11123;SDS011;5616;42.692;23.312;2022-09-19T15:08:55;3.13;;;1.13;;
11123;SDS011;5616;42.692;23.312;2022-09-19T15:11:25;1.37;;;1.17;;
11123;SDS011;5616;42.692;23.312;2022-09-19T15:13:54;1.23;;;1.00;;
11123;SDS011;5616;42.692;23.312;2022-09-19T15:16:23;2.23;;;1.03;;
11123;SDS011;5616;42.692;23.312;2022-09-19T15:18:54;2.47;;;0.87;;
11123;SDS011;5616;42.692;23.312;2022-09-19T15:21:24;3.00;;;1.90;;
11123;SDS011;5616;42.692;23.312;2022-09-19T15:23:55;1.67;;;1.40;;
11123;SDS011;5616;42.692;23.312;2022-09-19T15:26:25;1.30;;;1.00;;
11123;SDS011;5616;42.692;23.312;2022-09-19T15:28:54;1.30;;;1.07;;
11123;SDS011;5616;42.692;23.312;2022-09-19T15:31:23;4.40;;;1.00;;
11123;SDS011;5616;42.692;23.312;2022-09-19T15:33:54;2.93;;;1.00;;
11123;SDS011;5616;42.692;23.312;2022-09-19T15:36:27;1.30;;;1.00;;
11123;SDS011;5616;42.692;23.312;2022-09-19T15:38:56;2.63;;;1.20;;
11123;SDS011;5616;42.692;23.312;2022-09-19T15:41:24;3.03;;;1.67;;
11123;SDS011;5616;42.692;23.312;2022-09-19T15:43:54;3.17;;;1.47;;
11123;SDS011;5616;42.692;23.312;2022-09-19T15:49:19;2.53;;;1.90;;
11123;SDS011;5616;42.692;23.312;2022-09-19T15:51:54;1.97;;;1.40;;
11123;SDS011;5616;42.692;23.312;2022-09-19T15:54:24;1.47;;;1.27;;
11123;SDS011;5616;42.692;23.312;2022-09-19T15:56:53;1.60;;;1.10;;
11123;SDS011;5616;42.692;23.312;2022-09-19T15:59:23;1.60;;;1.10;;
11123;SDS011;5616;42.692;23.312;2022-09-19T16:01:55;1.20;;;1.10;;
11123;SDS011;5616;42.692;23.312;2022-09-19T16:04:33;1.57;;;1.30;;